createdAt,value
2023-10-21T00:01:38.880Z,14.92
2023-10-21T00:04:05.943Z,14.94
2023-10-21T00:06:32.727Z,14.97
2023-10-21T00:08:59.515Z,15.00
2023-10-21T00:11:26.435Z,15.00
2023-10-21T00:13:53.364Z,14.95
2023-10-21T00:16:20.116Z,15.02
2023-10-21T00:18:47.614Z,15.08
2023-10-21T00:21:14.646Z,15.12
2023-10-21T00:23:41.887Z,15.16
2023-10-21T00:26:08.597Z,15.16
2023-10-21T00:28:36.929Z,15.16
2023-10-21T00:31:04.835Z,15.18
2023-10-21T00:33:31.901Z,15.18
2023-10-21T00:35:59.286Z,15.19
2023-10-21T00:38:26.378Z,15.20
2023-10-21T00:40:53.959Z,15.22
2023-10-21T00:43:33.578Z,15.16
2023-10-21T00:46:20.809Z,15.22
2023-10-21T00:48:48.808Z,15.25
2023-10-21T00:51:16.588Z,15.26
2023-10-21T00:53:44.196Z,15.29
2023-10-21T00:56:11.449Z,15.31
2023-10-21T00:58:38.081Z,15.33
2023-10-21T01:01:07.420Z,15.24
2023-10-21T01:03:36.916Z,15.27
2023-10-21T01:06:05.122Z,15.31
2023-10-21T01:08:42.955Z,15.32
2023-10-21T01:11:11.055Z,15.32
2023-10-21T01:13:38.349Z,15.34
2023-10-21T01:16:05.384Z,15.35
2023-10-21T01:18:34.718Z,15.36
2023-10-21T01:21:04.947Z,15.32
2023-10-21T01:23:34.397Z,15.31
2023-10-21T01:26:02.479Z,15.30
2023-10-21T01:28:29.893Z,15.30
2023-10-21T01:30:56.970Z,15.33
2023-10-21T01:33:24.021Z,15.34
2023-10-21T01:35:51.378Z,15.31
2023-10-21T01:38:21.179Z,15.27
2023-10-21T01:40:50.451Z,15.27
2023-10-21T01:43:17.496Z,15.29
2023-10-21T01:45:44.253Z,15.25
2023-10-21T01:48:11.593Z,15.24
2023-10-21T01:50:38.744Z,15.23
2023-10-21T01:53:05.991Z,15.19
2023-10-21T01:55:34.374Z,15.12
2023-10-21T01:58:01.320Z,15.17
2023-10-21T02:00:29.048Z,15.20
2023-10-21T02:02:57.534Z,15.22
2023-10-21T02:05:25.944Z,15.25
2023-10-21T02:07:53.371Z,15.25
2023-10-21T02:10:20.234Z,15.30
2023-10-21T02:12:47.336Z,15.31
2023-10-21T02:15:17.174Z,15.33
2023-10-21T02:17:46.259Z,15.35
2023-10-21T02:20:15.109Z,15.38
2023-10-21T02:22:43.008Z,15.40
2023-10-21T02:25:15.468Z,15.40
2023-10-21T02:27:43.256Z,15.41
2023-10-21T02:30:15.503Z,15.39
2023-10-21T02:32:46.940Z,15.27
2023-10-21T02:35:14.419Z,15.29
2023-10-21T02:37:42.127Z,15.30
2023-10-21T02:40:09.879Z,15.33
2023-10-21T02:42:38.359Z,15.36
2023-10-21T02:45:06.306Z,15.38
2023-10-21T02:47:33.270Z,15.37
2023-10-21T02:50:00.437Z,15.31
2023-10-21T02:52:27.797Z,15.29
2023-10-21T02:54:54.527Z,15.29
2023-10-21T02:57:21.410Z,15.29
2023-10-21T02:59:48.148Z,15.33
2023-10-21T03:02:14.899Z,15.27
2023-10-21T03:04:41.609Z,15.23
2023-10-21T03:07:08.229Z,15.19
2023-10-21T03:09:35.191Z,15.24
2023-10-21T03:12:02.140Z,15.24
2023-10-21T03:14:28.857Z,15.21
2023-10-21T03:16:55.630Z,15.20
2023-10-21T03:19:22.334Z,15.26
2023-10-21T03:21:48.968Z,15.29
2023-10-21T03:24:15.737Z,15.31
2023-10-21T03:26:42.342Z,15.31
2023-10-21T03:29:10.271Z,15.28
2023-10-21T03:31:39.446Z,15.18
2023-10-21T03:34:06.448Z,15.18
2023-10-21T03:36:33.190Z,15.17
2023-10-21T03:39:00.061Z,15.17
2023-10-21T03:41:27.441Z,15.18
2023-10-21T03:43:54.120Z,15.21
2023-10-21T03:46:21.928Z,15.23
2023-10-21T03:48:48.784Z,15.22
2023-10-21T03:51:15.520Z,15.21
2023-10-21T03:53:44.149Z,15.16
2023-10-21T03:56:11.327Z,15.19
2023-10-21T03:58:38.553Z,15.19
2023-10-21T04:01:05.937Z,15.16
2023-10-21T04:03:34.160Z,15.19
2023-10-21T04:06:01.295Z,15.21
2023-10-21T04:08:30.319Z,15.21
2023-10-21T04:10:56.966Z,15.21
2023-10-21T04:13:23.702Z,15.23
2023-10-21T04:15:50.789Z,15.24
2023-10-21T04:18:18.525Z,15.25
2023-10-21T04:20:46.043Z,15.26
2023-10-21T04:23:13.323Z,15.28
2023-10-21T04:25:40.309Z,15.32
2023-10-21T04:28:07.921Z,15.34
2023-10-21T04:30:35.743Z,15.36
2023-10-21T04:33:03.232Z,15.37
2023-10-21T04:35:30.099Z,15.38
2023-10-21T04:37:59.907Z,15.41
2023-10-21T04:40:26.648Z,15.43
2023-10-21T04:42:53.285Z,15.45
2023-10-21T04:45:20.041Z,15.47
2023-10-21T04:47:47.006Z,15.48
2023-10-21T04:50:14.782Z,15.42
2023-10-21T04:52:41.723Z,15.47
2023-10-21T04:55:08.650Z,15.52
2023-10-21T04:57:36.201Z,15.49
2023-10-21T05:00:04.500Z,15.50
2023-10-21T05:02:31.249Z,15.51
2023-10-21T05:04:58.038Z,15.51
2023-10-21T05:07:24.677Z,15.51
2023-10-21T05:09:51.452Z,15.50
2023-10-21T05:12:20.054Z,15.52
2023-10-21T05:14:46.679Z,15.52
2023-10-21T05:17:13.378Z,15.52
2023-10-21T05:19:40.113Z,15.52
2023-10-21T05:22:06.895Z,15.50
2023-10-21T05:24:33.537Z,15.50
2023-10-21T05:27:00.175Z,15.47
2023-10-21T05:29:27.695Z,15.47
2023-10-21T05:31:55.200Z,15.55
2023-10-21T05:34:22.224Z,15.58
2023-10-21T05:36:49.347Z,15.59
2023-10-21T05:39:16.360Z,15.61
2023-10-21T05:41:43.453Z,15.63
2023-10-21T05:44:10.390Z,15.58
2023-10-21T05:46:37.120Z,15.62
2023-10-21T05:49:04.639Z,15.58
2023-10-21T05:51:31.677Z,15.60
2023-10-21T05:53:58.757Z,15.66
2023-10-21T05:56:26.152Z,15.71
2023-10-21T05:58:53.160Z,15.73
2023-10-21T06:01:20.187Z,15.74
2023-10-21T06:03:47.878Z,15.76
2023-10-21T06:06:14.914Z,15.79
2023-10-21T06:08:41.669Z,15.81
2023-10-21T06:11:11.464Z,15.78
2023-10-21T06:13:38.944Z,15.83
2023-10-21T06:16:06.514Z,15.87
2023-10-21T06:18:33.285Z,15.87
2023-10-21T06:21:00.119Z,15.91
2023-10-21T06:23:26.831Z,15.89
2023-10-21T06:25:53.560Z,15.93
2023-10-21T06:28:20.521Z,16.01
2023-10-21T06:30:47.504Z,16.06
2023-10-21T06:33:14.603Z,16.12
2023-10-21T06:35:41.470Z,16.14
2023-10-21T06:38:08.477Z,16.21
2023-10-21T06:40:49.838Z,16.27
2023-10-21T06:43:22.412Z,16.32
2023-10-21T06:45:49.386Z,16.37
2023-10-21T06:48:16.353Z,16.40
2023-10-21T06:50:43.223Z,16.43
2023-10-21T06:53:10.738Z,16.44
2023-10-21T06:55:45.226Z,16.44
2023-10-21T06:58:12.860Z,16.51
2023-10-21T07:00:39.694Z,16.59
2023-10-21T07:03:06.904Z,16.67
2023-10-21T07:05:35.818Z,16.69
2023-10-21T07:08:02.678Z,16.73
2023-10-21T07:10:30.134Z,16.77
2023-10-21T07:12:57.518Z,16.81
2023-10-21T07:15:25.748Z,16.83
2023-10-21T07:17:53.586Z,16.88
2023-10-21T07:20:20.987Z,16.93
2023-10-21T07:22:50.200Z,16.97
2023-10-21T07:25:19.278Z,16.99
2023-10-21T07:27:46.847Z,17.02
2023-10-21T07:30:15.536Z,17.04
2023-10-21T07:32:42.270Z,17.07
2023-10-21T07:35:09.815Z,17.08
2023-10-21T07:37:36.778Z,17.06
2023-10-21T07:40:06.344Z,17.05
2023-10-21T07:42:33.674Z,17.04
2023-10-21T07:45:00.620Z,17.07
2023-10-21T07:47:28.115Z,17.11
2023-10-21T07:49:56.238Z,17.08
2023-10-21T07:52:23.543Z,17.10
2023-10-21T07:54:50.470Z,17.14
2023-10-21T07:57:17.338Z,17.20
2023-10-21T07:59:45.363Z,17.22
2023-10-21T08:02:12.362Z,17.34
2023-10-21T08:04:40.074Z,17.48
2023-10-21T08:07:07.166Z,17.64
2023-10-21T08:09:33.810Z,17.80
2023-10-21T08:12:01.093Z,17.85
2023-10-21T08:14:30.977Z,17.89
2023-10-21T08:16:58.796Z,17.96
2023-10-21T08:19:25.643Z,18.00
2023-10-21T08:21:52.391Z,18.04
2023-10-21T08:24:19.182Z,18.05
2023-10-21T08:26:45.878Z,18.06
2023-10-21T08:29:12.613Z,18.04
2023-10-21T08:31:39.506Z,18.09
2023-10-21T08:34:10.448Z,18.06
2023-10-21T08:36:37.346Z,18.10
2023-10-21T08:39:07.785Z,18.11
2023-10-21T08:41:39.731Z,18.10
2023-10-21T08:44:08.656Z,18.07
2023-10-21T08:46:35.995Z,18.05
2023-10-21T08:49:04.503Z,18.04
2023-10-21T08:51:33.879Z,18.03
2023-10-21T08:54:04.691Z,18.01
2023-10-21T08:56:33.515Z,18.01
2023-10-21T08:59:01.863Z,18.00
2023-10-21T09:01:29.090Z,18.02
2023-10-21T09:04:00.716Z,18.05
2023-10-21T09:06:27.840Z,18.11
2023-10-21T09:08:54.701Z,18.17
2023-10-21T09:11:30.708Z,18.22
2023-10-21T09:13:59.596Z,18.26
2023-10-21T09:16:32.483Z,18.29
2023-10-21T09:19:05.722Z,18.31
2023-10-21T09:21:38.771Z,18.33
2023-10-21T09:24:07.436Z,18.40
2023-10-21T09:26:41.852Z,18.50
2023-10-21T09:29:15.465Z,18.60
2023-10-21T09:31:52.322Z,18.69
2023-10-21T09:34:45.657Z,18.69
2023-10-21T09:37:12.754Z,18.66
2023-10-21T09:39:40.084Z,18.61
2023-10-21T09:42:07.479Z,18.56
2023-10-21T09:44:38.915Z,18.53
2023-10-21T09:47:07.298Z,18.49
2023-10-21T09:49:38.947Z,18.46
2023-10-21T09:52:11.228Z,18.39
2023-10-21T09:54:44.721Z,18.36
2023-10-21T09:57:13.045Z,18.36
2023-10-21T09:59:41.453Z,18.39
2023-10-21T10:02:10.009Z,18.43
2023-10-21T10:04:37.379Z,18.47
2023-10-21T10:07:09.021Z,18.51
2023-10-21T10:09:41.904Z,18.59
2023-10-21T10:12:16.995Z,18.75
2023-10-21T10:14:44.037Z,19.02
2023-10-21T10:17:11.077Z,19.28
2023-10-21T10:19:43.147Z,19.53
2023-10-21T10:22:33.271Z,19.79
2023-10-21T10:25:15.803Z,20.07
2023-10-21T10:27:43.312Z,20.32
2023-10-21T10:30:22.757Z,20.50
2023-10-21T10:32:53.727Z,20.57
2023-10-21T10:35:31.779Z,20.55
2023-10-21T10:38:01.727Z,20.48
2023-10-21T10:40:41.490Z,20.42
2023-10-21T10:43:11.769Z,20.37
2023-10-21T10:45:39.250Z,20.35
2023-10-21T10:48:08.053Z,20.37
2023-10-21T10:50:38.759Z,20.32
2023-10-21T10:53:16.969Z,20.31
2023-10-21T10:55:48.068Z,20.30
2023-10-21T10:58:16.168Z,20.39
2023-10-21T11:00:43.126Z,20.49
2023-10-21T11:03:09.913Z,20.59
2023-10-21T11:05:38.229Z,20.62
2023-10-21T11:08:09.783Z,20.75
2023-10-21T11:10:36.523Z,20.89
2023-10-21T11:13:05.745Z,21.03
2023-10-21T11:15:33.403Z,21.12
2023-10-21T11:18:01.734Z,21.26
2023-10-21T11:20:28.715Z,21.38
2023-10-21T11:22:55.450Z,21.51
2023-10-21T11:25:22.314Z,21.58
2023-10-21T11:27:49.436Z,21.72
2023-10-21T11:30:16.772Z,21.82
2023-10-21T11:32:43.427Z,22.01
2023-10-21T11:35:10.175Z,22.12
2023-10-21T11:37:39.194Z,22.10
2023-10-21T11:40:10.508Z,22.19
2023-10-21T11:42:40.475Z,22.33
2023-10-21T11:45:09.826Z,22.43
2023-10-21T11:47:38.149Z,22.47
2023-10-21T11:50:09.687Z,22.49
2023-10-21T11:52:38.987Z,22.53
2023-10-21T11:55:12.131Z,22.56
2023-10-21T11:57:58.645Z,22.56
2023-10-21T12:00:45.670Z,22.59
2023-10-21T12:03:31.572Z,22.67
2023-10-21T12:06:07.533Z,22.71
2023-10-21T12:09:06.434Z,22.65
2023-10-21T12:11:52.289Z,22.50
2023-10-21T12:14:38.084Z,22.39
2023-10-21T12:17:27.755Z,22.34
2023-10-21T12:19:57.375Z,22.31
2023-10-21T12:22:42.834Z,22.28
2023-10-21T12:25:28.213Z,22.23
2023-10-21T12:27:57.825Z,22.24
2023-10-21T12:30:45.217Z,22.32
2023-10-21T12:33:16.327Z,22.43
2023-10-21T12:36:11.734Z,22.53
2023-10-21T12:38:42.055Z,22.59
2023-10-21T12:41:38.060Z,22.64
2023-10-21T12:44:12.281Z,22.70
2023-10-21T12:46:41.094Z,22.69
2023-10-21T12:49:26.055Z,22.79
2023-10-21T12:51:56.609Z,22.85
2023-10-21T12:54:23.811Z,22.86
2023-10-21T12:56:51.275Z,22.88
2023-10-21T12:59:20.072Z,22.91
2023-10-21T13:01:47.317Z,22.91
2023-10-21T13:04:14.176Z,22.92
2023-10-21T13:06:43.190Z,22.94
2023-10-21T13:09:30.084Z,22.96
2023-10-21T13:11:57.313Z,23.00
2023-10-21T13:14:27.925Z,22.98
2023-10-21T13:16:54.747Z,22.92
2023-10-21T13:19:26.696Z,22.85
2023-10-21T13:21:55.227Z,22.76
2023-10-21T13:24:22.102Z,22.68
2023-10-21T13:26:48.999Z,22.61
2023-10-21T13:29:15.657Z,22.56
2023-10-21T13:31:42.263Z,22.56
2023-10-21T13:34:09.330Z,22.56
2023-10-21T13:36:36.323Z,22.60
2023-10-21T13:39:15.856Z,22.61
2023-10-21T13:41:43.058Z,22.59
2023-10-21T13:44:09.801Z,22.56
2023-10-21T13:46:36.407Z,22.52
2023-10-21T13:49:06.338Z,22.41
2023-10-21T13:51:33.002Z,22.35
2023-10-21T13:53:59.797Z,22.35
2023-10-21T13:56:26.600Z,22.33
2023-10-21T13:58:55.838Z,22.28
2023-10-21T14:01:23.898Z,22.23
2023-10-21T14:03:50.710Z,22.17
2023-10-21T14:06:20.401Z,22.09
2023-10-21T14:08:47.378Z,22.06
2023-10-21T14:11:14.180Z,22.02
2023-10-21T14:13:40.818Z,21.98
2023-10-21T14:16:10.301Z,21.88
2023-10-21T14:18:36.988Z,21.84
2023-10-21T14:21:04.759Z,21.79
2023-10-21T14:23:31.561Z,21.74
2023-10-21T14:25:59.945Z,21.68
2023-10-21T14:28:29.089Z,21.61
2023-10-21T14:30:58.194Z,21.56
2023-10-21T14:33:30.357Z,21.50
2023-10-21T14:35:59.178Z,21.45
2023-10-21T14:38:28.822Z,21.39
2023-10-21T14:40:59.042Z,21.34
2023-10-21T14:43:26.668Z,21.28
2023-10-21T14:45:53.894Z,21.23
2023-10-21T14:48:20.900Z,21.17
2023-10-21T14:50:52.017Z,21.11
2023-10-21T14:53:19.179Z,21.06
2023-10-21T14:58:18.087Z,20.93
2023-10-21T15:00:45.276Z,20.87
2023-10-21T15:03:20.198Z,20.81
2023-10-21T15:05:50.204Z,20.75
2023-10-21T15:08:21.311Z,20.68
2023-10-21T15:10:49.276Z,20.62
2023-10-21T15:13:16.242Z,20.56
2023-10-21T15:15:43.717Z,20.50
2023-10-21T15:18:10.867Z,20.39
2023-10-21T15:20:37.602Z,20.36
2023-10-21T15:23:04.745Z,20.31
2023-10-21T15:25:31.716Z,20.25
2023-10-21T15:27:58.692Z,20.14
2023-10-21T15:30:25.347Z,20.11
2023-10-21T15:32:53.229Z,20.02
2023-10-21T15:35:20.264Z,19.98
2023-10-21T15:37:47.960Z,19.94
2023-10-21T15:40:17.216Z,19.89
2023-10-21T15:42:45.086Z,19.83
2023-10-21T15:45:15.017Z,19.78
2023-10-21T15:47:42.966Z,19.73
2023-10-21T15:50:10.797Z,19.67
2023-10-21T15:52:38.506Z,19.63
2023-10-21T15:55:06.348Z,19.57
2023-10-21T15:57:33.621Z,19.52
2023-10-21T16:00:03.596Z,19.46
2023-10-21T16:02:37.868Z,19.41
2023-10-21T16:05:05.780Z,19.36
2023-10-21T16:07:50.312Z,19.31
2023-10-21T16:10:20.055Z,19.25
2023-10-21T16:12:46.890Z,19.20
2023-10-21T16:15:13.890Z,19.12
2023-10-21T16:17:41.235Z,19.10
2023-10-21T16:20:09.156Z,19.06
2023-10-21T16:22:37.459Z,19.01
2023-10-21T16:25:04.775Z,18.96
2023-10-21T16:27:31.425Z,18.91
2023-10-21T16:29:58.274Z,18.85
2023-10-21T16:32:26.013Z,18.82
2023-10-21T16:34:53.050Z,18.79
2023-10-21T16:37:19.709Z,18.74
2023-10-21T16:39:46.560Z,18.70
2023-10-21T16:42:13.183Z,18.65
2023-10-21T16:44:40.434Z,18.58
2023-10-21T16:47:07.151Z,18.56
2023-10-21T16:49:33.757Z,18.52
2023-10-21T16:52:00.552Z,18.48
2023-10-21T16:54:27.924Z,18.44
2023-10-21T16:56:55.829Z,18.39
2023-10-21T16:59:22.535Z,18.35
2023-10-21T17:01:49.586Z,18.30
2023-10-21T17:04:16.373Z,18.26
2023-10-21T17:06:43.188Z,18.22
2023-10-21T17:09:10.187Z,18.18
2023-10-21T17:11:37.320Z,18.09
2023-10-21T17:14:04.159Z,18.09
2023-10-21T17:16:31.026Z,18.07
2023-10-21T17:18:58.982Z,17.99
2023-10-21T17:21:25.995Z,17.98
2023-10-21T17:23:54.091Z,17.96
2023-10-21T17:26:22.158Z,17.93
2023-10-21T17:28:49.120Z,17.89
2023-10-21T17:31:15.772Z,17.84
2023-10-21T17:33:50.338Z,17.76
2023-10-21T17:36:18.542Z,17.76
2023-10-21T17:38:45.385Z,17.75
2023-10-21T17:41:12.373Z,17.73
2023-10-21T17:43:38.927Z,17.69
2023-10-21T17:46:06.018Z,17.61
2023-10-21T17:48:33.758Z,17.61
2023-10-21T17:51:00.842Z,17.59
2023-10-21T17:53:28.503Z,17.56
2023-10-21T17:55:55.750Z,17.53
2023-10-21T17:58:22.684Z,17.50
2023-10-21T18:00:49.900Z,17.47
2023-10-21T18:03:17.168Z,17.39
2023-10-21T18:05:45.259Z,17.39
2023-10-21T18:08:12.658Z,17.36
2023-10-21T18:10:39.353Z,17.35
2023-10-21T18:13:06.090Z,17.32
2023-10-21T18:15:32.900Z,17.29
2023-10-21T18:17:59.623Z,17.26
2023-10-21T18:20:28.620Z,17.19
2023-10-21T18:22:57.062Z,17.18
2023-10-21T18:25:23.728Z,17.17
2023-10-21T18:27:50.611Z,17.14
2023-10-21T18:30:18.326Z,17.10
2023-10-21T18:32:47.053Z,17.06
2023-10-21T18:35:14.228Z,17.05
2023-10-21T18:37:42.196Z,17.02
2023-10-21T18:40:09.354Z,16.99
2023-10-21T18:42:36.741Z,16.95
2023-10-21T18:45:05.592Z,16.92
2023-10-21T18:47:33.387Z,16.89
2023-10-21T18:50:00.107Z,16.86
2023-10-21T18:52:26.938Z,16.84
2023-10-21T18:54:53.940Z,16.76
2023-10-21T18:57:21.035Z,16.76
2023-10-21T18:59:48.617Z,16.75
2023-10-21T19:02:15.838Z,16.73
2023-10-21T19:04:44.864Z,16.72
2023-10-21T19:07:15.568Z,16.72
2023-10-21T19:09:43.097Z,16.71
2023-10-21T19:12:09.972Z,16.70
2023-10-21T19:14:36.809Z,16.71
2023-10-21T19:17:05.542Z,16.66
2023-10-21T19:19:34.249Z,16.69
2023-10-21T19:22:01.139Z,16.70
2023-10-21T19:24:28.639Z,16.69
2023-10-21T19:26:56.188Z,16.66
2023-10-21T19:29:24.054Z,16.62
2023-10-21T19:31:52.995Z,16.61
2023-10-21T19:34:20.458Z,16.59
2023-10-21T19:36:47.629Z,16.55
2023-10-21T19:39:17.217Z,16.49
2023-10-21T19:41:44.685Z,16.47
2023-10-21T19:44:25.096Z,16.47
2023-10-21T19:46:55.186Z,16.47
2023-10-21T19:49:24.179Z,16.47
2023-10-21T19:51:51.870Z,16.47
2023-10-21T19:54:19.327Z,16.46
2023-10-21T19:56:46.536Z,16.43
2023-10-21T19:59:15.684Z,16.38
2023-10-21T20:01:42.745Z,16.34
2023-10-21T20:04:11.523Z,16.32
2023-10-21T20:06:38.756Z,16.32
2023-10-21T20:09:06.456Z,16.31
2023-10-21T20:11:33.711Z,16.30
2023-10-21T20:14:01.003Z,16.31
2023-10-21T20:16:28.353Z,16.31
2023-10-21T20:18:55.641Z,16.29
2023-10-21T20:21:22.891Z,16.29
2023-10-21T20:23:49.783Z,16.30
2023-10-21T20:26:16.700Z,16.29
2023-10-21T20:28:44.170Z,16.28
2023-10-21T20:31:12.337Z,16.27
2023-10-21T20:33:39.576Z,16.28
2023-10-21T20:36:10.067Z,16.30
2023-10-21T20:38:37.064Z,16.31
2023-10-21T20:41:12.738Z,16.30
2023-10-21T20:43:42.520Z,16.28
2023-10-21T20:46:09.714Z,16.27
2023-10-21T20:56:20.080Z,16.31
2023-10-21T20:58:48.897Z,16.31
2023-10-21T21:01:26.657Z,16.32
2023-10-21T21:04:05.688Z,16.31
2023-10-21T21:06:34.092Z,16.32
2023-10-21T21:09:02.169Z,16.32
2023-10-21T21:11:30.314Z,16.32
2023-10-21T21:13:59.980Z,16.31
2023-10-21T21:16:28.735Z,16.30
2023-10-21T21:18:56.826Z,16.28
2023-10-21T21:21:26.045Z,16.27
2023-10-21T21:23:54.472Z,16.24
2023-10-21T21:26:22.528Z,16.23
2023-10-21T21:28:50.699Z,16.23
2023-10-21T21:31:18.875Z,16.22
2023-10-21T21:33:47.031Z,16.22
2023-10-21T21:36:15.266Z,16.22
2023-10-21T21:38:43.396Z,16.23
2023-10-21T21:41:17.231Z,16.23
2023-10-21T21:43:46.061Z,16.23
2023-10-21T21:46:21.488Z,16.23
2023-10-21T21:48:50.311Z,16.25
2023-10-21T21:51:18.703Z,16.28
2023-10-21T21:53:46.879Z,16.30
2023-10-21T21:56:16.119Z,16.33
2023-10-21T21:58:44.360Z,16.37
2023-10-21T22:01:12.839Z,16.41
2023-10-21T22:03:43.319Z,16.44
2023-10-21T22:06:13.713Z,16.47
2023-10-21T22:08:41.963Z,16.50
2023-10-21T22:11:10.034Z,16.53
2023-10-21T22:13:38.935Z,16.54
2023-10-21T22:16:10.865Z,16.56
2023-10-21T22:18:39.843Z,16.58
2023-10-21T22:21:10.926Z,16.60
2023-10-21T22:23:54.406Z,16.62
2023-10-21T22:26:29.875Z,16.61
2023-10-21T22:29:00.548Z,16.62
2023-10-21T22:31:28.763Z,16.63
2023-10-21T22:33:57.083Z,16.64
2023-10-21T22:36:25.175Z,16.62
2023-10-21T22:38:53.291Z,16.60
2023-10-21T22:41:21.503Z,16.59
2023-10-21T22:43:49.592Z,16.59
2023-10-21T22:46:17.723Z,16.61
2023-10-21T22:48:48.248Z,16.63
2023-10-21T22:51:18.598Z,16.63
2023-10-21T22:53:47.005Z,16.65
2023-10-21T22:56:15.051Z,16.67
2023-10-21T22:58:43.673Z,16.69
2023-10-21T23:01:12.563Z,16.70
2023-10-21T23:03:42.333Z,16.72
2023-10-21T23:06:10.725Z,16.73
2023-10-21T23:08:39.494Z,16.75
2023-10-21T23:11:10.424Z,16.75
2023-10-21T23:13:38.914Z,16.77
2023-10-21T23:16:07.642Z,16.79
2023-10-21T23:18:38.954Z,16.80
2023-10-21T23:21:07.982Z,16.81
2023-10-21T23:23:36.301Z,16.82
2023-10-21T23:26:04.693Z,16.84
2023-10-21T23:28:33.203Z,16.85
2023-10-21T23:31:01.756Z,16.85
2023-10-21T23:33:29.928Z,16.86
2023-10-21T23:36:07.741Z,16.87
2023-10-21T23:38:36.311Z,16.88
2023-10-21T23:41:09.026Z,16.87
2023-10-21T23:43:37.173Z,16.88
2023-10-21T23:46:07.258Z,16.89
2023-10-21T23:48:35.645Z,16.90
2023-10-21T23:51:03.945Z,16.89
2023-10-21T23:53:32.708Z,16.89
2023-10-21T23:56:01.107Z,16.90
2023-10-21T23:58:29.850Z,16.90
